Current Weather

College Park

College Park, Maryland (KCGS)

Report from: Sunday, July 14, 2024 6:25 AM EDT
Current time: Sunday, July 14, 2024 6:57 AM EDT

Nearby weather – Weather history – Daily summaries
Weather forecast

Temperature22.9°C (73.2°F)
Dew point22.2°C (72.0°F)
Winds Calm
Visibility10 mi. (16.1 km)
Clouds Sky clear
Altimeter30.06 in.Hg (1018 mB)
Relative humidity96 %
Density altitude1,120 ft. (342 m)
Remarks Fully automated report
Automated weather observing station with precipitation discriminator
Flight conditions Visual Meteorological Conditions
Raw dataKCGS 141025Z AUTO 00000KT 10SM CLR 23/22 A3006 RMK AO2 T02290222
An error has occurred. This application may no longer respond until reloaded. Reload 🗙